Time;durP1;ratioP1;P1;durP2;ratioP2;P2;SDS_P1;SDS_P2;PMS_P1;PMS_P2;Temp;Humidity;BMP_temperature;BMP_pressure;BME280_temperature;BME280_humidity;BME280_pressure;Samples;Min_cycle;Max_cycle;Signal;HPM_P1;HPM_P2
2022/11/15 07:08:41;;;;;;;32.17;16.97;;;;;;;0.16;100.00;100912.39;1676347;82;21959;-46
2022/11/15 07:11:40;;;;;;;25.65;16.77;;;;;;;0.32;100.00;100908.52;1658410;82;21097;-40
2022/11/15 07:14:33;;;;;;;26.62;16.20;;;;;;;0.44;100.00;100901.41;1673822;83;22061;-46
2022/11/15 07:17:37;;;;;;;28.87;16.45;;;;;;;0.51;100.00;100894.46;1656678;82;21399;-38
2022/11/15 07:20:52;;;;;;;32.98;17.80;;;;;;;0.52;100.00;100895.34;1662294;83;21638;-37
2022/11/15 07:23:40;;;;;;;35.60;19.25;;;;;;;0.52;100.00;100883.38;1665371;82;21080;-37
2022/11/15 07:26:50;;;;;;;28.80;17.20;;;;;;;0.50;100.00;100891.81;1660655;83;21644;-38
2022/11/15 07:29:39;;;;;;;33.85;19.25;;;;;;;0.56;100.00;100887.38;1675210;82;21162;-45
2022/11/15 07:32:30;;;;;;;27.35;17.07;;;;;;;0.59;100.00;100884.97;1672840;83;21332;-39
2022/11/15 07:35:28;;;;;;;32.83;20.88;;;;;;;0.65;100.00;100887.44;1646388;84;21495;-39
2022/11/15 07:38:19;;;;;;;41.48;23.52;;;;;;;0.74;100.00;100878.85;1658569;84;21107;-39
2022/11/15 07:41:07;;;;;;;43.02;24.47;;;;;;;0.88;100.00;100883.81;1654684;83;21904;-38
2022/11/15 07:43:53;;;;;;;40.83;22.22;;;;;;;1.06;100.00;100879.53;1660126;83;21580;-37
2022/11/15 07:46:38;;;;;;;42.27;21.70;;;;;;;1.23;100.00;100873.47;1663458;83;21065;-38
2022/11/15 07:49:25;;;;;;;46.40;26.62;;;;;;;1.28;100.00;100864.66;1665512;83;21056;-46
2022/11/15 07:52:09;;;;;;;47.65;23.73;;;;;;;1.28;100.00;100866.84;1657190;84;21052;-39
2022/11/15 07:54:56;;;;;;;47.73;27.98;;;;;;;1.37;100.00;100866.36;1667358;83;21070;-45
2022/11/15 07:57:41;;;;;;;66.10;28.32;;;;;;;1.51;100.00;100860.16;1664901;83;21592;-46
2022/11/15 08:00:26;;;;;;;49.90;25.88;;;;;;;1.70;100.00;100855.40;1657614;83;20990;-45
2022/11/15 08:03:14;;;;;;;50.10;27.60;;;;;;;1.91;100.00;100855.85;1642694;82;21178;-46
2022/11/15 08:06:01;;;;;;;48.63;26.52;;;;;;;2.01;100.00;100858.91;1672009;82;21489;-39
2022/11/15 08:08:47;;;;;;;50.45;24.45;;;;;;;2.08;100.00;100850.59;1665619;83;21143;-45
2022/11/15 08:11:33;;;;;;;50.33;27.37;;;;;;;2.19;100.00;100850.19;1680583;82;21033;-37
2022/11/15 08:14:18;;;;;;;54.27;28.02;;;;;;;2.28;100.00;100851.47;1667688;83;21168;-38
2022/11/15 08:17:04;;;;;;;63.45;31.17;;;;;;;2.35;100.00;100842.27;1683603;82;21458;-39
2022/11/15 08:19:52;;;;;;;63.48;32.90;;;;;;;2.40;100.00;100847.22;1680438;82;21049;-38
2022/11/15 08:22:39;;;;;;;58.87;33.28;;;;;;;2.44;100.00;100849.12;1670917;83;21634;-39
2022/11/15 08:25:27;;;;;;;52.23;31.75;;;;;;;2.47;100.00;100847.94;1669862;82;21139;-45
2022/11/15 08:28:16;;;;;;;41.40;23.42;;;;;;;2.55;100.00;100846.57;1673206;83;21092;-45
2022/11/15 08:31:00;;;;;;;47.08;25.88;;;;;;;2.71;100.00;100853.63;1659251;84;21023;-40
2022/11/15 08:33:46;;;;;;;45.30;26.27;;;;;;;2.68;100.00;100847.95;1668387;83;21052;-47
2022/11/15 08:36:32;;;;;;;44.40;24.27;;;;;;;2.68;100.00;100845.77;1665434;83;21041;-38
2022/11/15 08:39:19;;;;;;;42.60;24.25;;;;;;;2.71;100.00;100839.42;1678639;82;21073;-46
2022/11/15 08:42:08;;;;;;;44.55;24.32;;;;;;;2.75;100.00;100833.15;1683511;82;21186;-38
2022/11/15 08:44:54;;;;;;;47.08;26.68;;;;;;;2.73;100.00;100832.22;1679478;83;21086;-45
2022/11/15 08:47:41;;;;;;;29.80;19.27;;;;;;;2.68;100.00;100825.10;1682783;82;21042;-45
2022/11/15 08:50:25;;;;;;;46.65;26.65;;;;;;;2.68;100.00;100821.23;1673543;83;21021;-48
2022/11/15 08:53:12;;;;;;;47.95;27.45;;;;;;;2.65;100.00;100820.27;1680511;82;21080;-46
2022/11/15 08:55:58;;;;;;;49.85;27.60;;;;;;;2.68;100.00;100814.77;1671311;83;21324;-39
2022/11/15 08:58:44;;;;;;;45.52;26.10;;;;;;;2.77;100.00;100806.07;1672026;82;21112;-45
2022/11/15 09:01:30;;;;;;;52.20;29.23;;;;;;;2.85;100.00;100814.61;1633409;84;21091;-45
2022/11/15 09:04:15;;;;;;;50.45;28.62;;;;;;;2.93;100.00;100810.61;1663449;83;21509;-38
2022/11/15 09:07:01;;;;;;;50.00;28.75;;;;;;;2.99;100.00;100813.84;1663207;83;21010;-46
2022/11/15 09:09:46;;;;;;;53.02;27.42;;;;;;;3.00;100.00;100803.97;1660071;83;21615;-38
2022/11/15 09:12:35;;;;;;;48.78;26.20;;;;;;;3.01;100.00;100798.38;1664709;83;21152;-44
2022/11/15 09:15:24;;;;;;;48.58;27.52;;;;;;;3.04;100.00;100795.93;1674440;83;20997;-46
2022/11/15 09:18:11;;;;;;;51.63;28.80;;;;;;;3.04;100.00;100800.69;1671699;83;21068;-46
2022/11/15 09:20:58;;;;;;;52.50;30.57;;;;;;;3.05;100.00;100792.10;1678124;82;21052;-39
2022/11/15 09:23:52;;;;;;;50.63;27.67;;;;;;;3.11;100.00;100790.16;1678278;83;21444;-45
2022/11/15 09:26:39;;;;;;;57.05;27.45;;;;;;;3.20;100.00;100782.77;1675536;83;21606;-39
2022/11/15 09:29:25;;;;;;;46.60;26.33;;;;;;;3.26;100.00;100778.23;1664101;82;21167;-45
2022/11/15 09:32:12;;;;;;;60.75;28.42;;;;;;;3.30;100.00;100773.62;1667471;83;21548;-46
2022/11/15 09:35:03;;;;;;;48.42;27.70;;;;;;;3.36;100.00;100764.78;1671020;83;21960;-47
2022/11/15 09:37:48;;;;;;;53.55;28.38;;;;;;;3.44;100.00;100762.09;1672021;83;21085;-45
2022/11/15 09:40:37;;;;;;;43.87;26.02;;;;;;;3.50;100.00;100758.42;1666757;83;21112;-37
2022/11/15 09:44:02;;;;;;;51.35;27.65;;;;;;;3.54;100.00;100750.33;1644002;83;21035;-45
2022/11/15 09:47:07;;;;;;;42.70;24.23;;;;;;;3.58;100.00;100745.33;1662288;83;21186;-46
2022/11/15 09:49:58;;;;;;;44.75;23.70;;;;;;;3.63;100.00;100750.26;1655167;83;21677;-40
2022/11/15 09:52:28;;;;;;;47.13;25.75;;;;;;;3.65;100.00;100742.16;1646377;84;21073;-45
2022/11/15 09:54:54;;;;;;;40.20;23.50;;;;;;;3.67;100.00;100744.38;1683401;82;21061;-46
2022/11/15 09:57:52;;;;;;;43.60;25.17;;;;;;;3.67;100.00;100724.97;1669557;82;21410;-45
2022/11/15 10:00:35;;;;;;;40.92;22.75;;;;;;;3.66;100.00;100720.62;1672972;82;21025;-45
2022/11/15 10:03:29;;;;;;;40.58;23.98;;;;;;;3.64;100.00;100717.49;1679619;82;21769;-39
2022/11/15 10:06:00;;;;;;;40.85;21.90;;;;;;;3.63;100.00;100721.80;1672527;82;21592;-41
2022/11/15 10:08:49;;;;;;;41.35;24.40;;;;;;;3.69;100.00;100716.83;1680346;83;21108;-39
2022/11/15 10:11:20;;;;;;;36.48;22.07;;;;;;;3.72;100.00;100713.06;1666020;82;21082;-38
2022/11/15 10:13:48;;;;;;;41.37;23.52;;;;;;;3.80;100.00;100712.02;1672036;82;21026;-46
2022/11/15 10:16:39;;;;;;;34.45;20.00;;;;;;;3.87;100.00;100716.98;1668809;83;21018;-46
2022/11/15 10:20:02;;;;;;;33.25;19.23;;;;;;;3.89;100.00;100712.76;1681981;83;21116;-47
2022/11/15 10:22:43;;;;;;;30.65;18.20;;;;;;;3.91;100.00;100714.56;1671920;82;21352;-47
2022/11/15 10:25:15;;;;;;;34.00;20.40;;;;;;;3.93;100.00;100709.00;1686027;82;21020;-46
2022/11/15 10:27:46;;;;;;;34.27;20.77;;;;;;;3.92;100.00;100705.08;1684374;82;21087;-46
2022/11/15 10:30:16;;;;;;;28.62;17.02;;;;;;;4.00;100.00;100704.91;1667843;82;21526;-47
2022/11/15 10:32:45;;;;;;;34.53;21.15;;;;;;;4.09;100.00;100694.86;1673383;83;21649;-38
2022/11/15 10:35:27;;;;;;;31.00;20.68;;;;;;;4.17;100.00;100694.68;1624538;84;21029;-39
2022/11/15 10:38:10;;;;;;;33.55;22.05;;;;;;;4.24;100.00;100688.89;1606651;85;21005;-45
2022/11/15 10:40:39;;;;;;;31.15;19.82;;;;;;;4.33;100.00;100686.11;1670315;82;21020;-38
2022/11/15 10:43:17;;;;;;;33.98;19.40;;;;;;;4.41;100.00;100680.35;1680339;82;21137;-38
2022/11/15 10:45:46;;;;;;;27.58;17.50;;;;;;;4.51;100.00;100681.07;1617003;85;21061;-45
2022/11/15 10:48:22;;;;;;;26.68;16.35;;;;;;;4.62;100.00;100672.33;1666480;83;21207;-46
2022/11/15 10:50:51;;;;;;;26.40;16.97;;;;;;;4.67;100.00;100669.46;1680816;82;21045;-48
2022/11/15 10:53:36;;;;;;;29.30;19.35;;;;;;;4.74;100.00;100663.61;1669229;83;21079;-47
2022/11/15 10:56:18;;;;;;;33.15;19.07;;;;;;;4.77;100.00;100660.25;1673183;82;21110;-45
2022/11/15 10:58:55;;;;;;;30.97;18.30;;;;;;;4.84;100.00;100662.18;1634633;83;21077;-46
2022/11/15 11:01:41;;;;;;;24.18;16.97;;;;;;;4.95;100.00;100659.48;1654329;82;21515;-40
2022/11/15 11:04:09;;;;;;;28.23;18.27;;;;;;;5.04;100.00;100650.67;1663172;82;21531;-40
2022/11/15 11:06:58;;;;;;;29.60;17.37;;;;;;;5.10;100.00;100642.16;1666819;82;21044;-45
2022/11/15 11:09:37;;;;;;;42.43;19.65;;;;;;;5.18;100.00;100635.48;1673818;83;21115;-47
2022/11/15 11:12:08;;;;;;;23.70;16.57;;;;;;;5.26;100.00;100626.17;1679756;82;21029;-38
2022/11/15 11:14:36;;;;;;;25.68;17.42;;;;;;;5.37;100.00;100625.59;1686498;82;21465;-46
2022/11/15 11:17:42;;;;;;;26.95;17.80;;;;;;;5.42;100.00;100619.68;1660425;82;21032;-46
2022/11/15 11:20:31;;;;;;;27.25;17.73;;;;;;;5.48;100.00;100615.94;1677467;82;21049;-49
2022/11/15 11:23:21;;;;;;;22.10;15.90;;;;;;;5.57;100.00;100613.59;1635004;84;22040;-46
2022/11/15 11:26:47;;;;;;;27.52;17.42;;;;;;;5.63;100.00;100602.91;1644033;83;21747;-40
2022/11/15 11:29:33;;;;;;;26.07;16.40;;;;;;;5.65;100.00;100600.80;1665872;82;21136;-46
2022/11/15 11:32:31;;;;;;;27.75;16.05;;;;;;;5.68;100.00;100595.66;1670834;83;21709;-47
2022/11/15 11:35:20;;;;;;;25.43;15.80;;;;;;;5.70;100.00;100586.21;1671997;82;21648;-46
2022/11/15 11:37:55;;;;;;;25.92;16.65;;;;;;;5.75;100.00;100585.03;1679922;82;21017;-38
2022/11/15 11:40:40;;;;;;;25.17;16.87;;;;;;;5.76;99.76;100577.27;1667091;83;21508;-40
2022/11/15 11:43:38;;;;;;;24.32;14.33;;;;;;;5.80;99.56;100571.31;1663430;83;21615;-47
2022/11/15 11:46:39;;;;;;;21.00;14.13;;;;;;;5.82;99.50;100570.92;1669932;83;21120;-39
2022/11/15 11:49:35;;;;;;;18.35;12.70;;;;;;;5.88;99.08;100571.06;1673916;82;21080;-47
2022/11/15 11:52:13;;;;;;;19.98;12.88;;;;;;;5.94;98.80;100568.19;1670870;83;21568;-39
2022/11/15 11:55:20;;;;;;;22.87;13.38;;;;;;;5.99;98.80;100554.47;1674855;82;21738;-38
2022/11/15 11:58:05;;;;;;;24.00;12.68;;;;;;;6.07;98.51;100554.63;1680488;82;21025;-48
2022/11/15 12:00:35;;;;;;;19.60;12.82;;;;;;;6.11;97.74;100541.75;1663032;83;21346;-46
2022/11/15 12:03:57;;;;;;;22.20;13.28;;;;;;;6.14;97.17;100536.60;1658726;83;22057;-46
2022/11/15 12:06:47;;;;;;;19.00;11.80;;;;;;;6.14;96.79;100529.23;1672146;83;21064;-39
2022/11/15 12:09:36;;;;;;;16.17;11.00;;;;;;;6.17;96.46;100526.72;1665187;83;21495;-40
2022/11/15 12:12:18;;;;;;;18.00;11.45;;;;;;;6.17;96.04;100527.14;1678370;83;21030;-40
2022/11/15 12:14:56;;;;;;;22.17;12.82;;;;;;;6.17;95.71;100521.52;1674065;82;21995;-39
2022/11/15 12:17:25;;;;;;;16.45;11.03;;;;;;;6.18;95.63;100512.88;1676901;83;21006;-39
2022/11/15 12:19:56;;;;;;;17.23;10.40;;;;;;;6.20;95.67;100512.89;1675546;82;21458;-41
2022/11/15 12:22:37;;;;;;;17.05;9.73;;;;;;;6.23;95.67;100507.36;1650830;84;21021;-43
2022/11/15 12:25:19;;;;;;;15.95;10.53;;;;;;;6.27;95.45;100492.72;1674564;83;21085;-48
2022/11/15 12:27:51;;;;;;;21.40;11.48;;;;;;;6.28;95.35;100490.14;1647422;84;21376;-40
2022/11/15 12:30:20;;;;;;;15.95;10.32;;;;;;;6.28;95.21;100484.07;1656769;83;21028;-47
2022/11/15 12:32:57;;;;;;;18.57;10.55;;;;;;;6.32;95.00;100484.56;1663511;84;21138;-39
2022/11/15 12:35:41;;;;;;;13.95;8.10;;;;;;;6.35;94.86;100477.72;1661637;84;21023;-47
2022/11/15 12:38:12;;;;;;;15.95;9.40;;;;;;;6.40;94.84;100472.62;1611902;86;21077;-47
2022/11/15 12:41:11;;;;;;;16.07;9.73;;;;;;;6.40;94.36;100468.30;1619979;86;21120;-47
2022/11/15 12:43:39;;;;;;;10.25;5.20;;;;;;;6.42;94.12;100473.94;1604918;87;21128;-47
2022/11/15 12:46:33;;;;;;;6.35;4.10;;;;;;;6.42;93.34;100476.11;1593600;87;21486;-41
2022/11/15 12:49:02;;;;;;;7.17;4.15;;;;;;;6.43;92.55;100469.19;1604226;87;21168;-47
2022/11/15 12:51:53;;;;;;;4.80;3.80;;;;;;;6.48;91.34;100462.36;1618841;86;21491;-40
2022/11/15 12:54:30;;;;;;;7.33;4.60;;;;;;;6.53;91.06;100454.23;1649457;85;21096;-40
2022/11/15 12:57:17;;;;;;;8.23;4.90;;;;;;;6.48;90.44;100454.14;1642015;85;21166;-40
2022/11/15 13:00:07;;;;;;;8.98;6.25;;;;;;;6.45;90.08;100439.80;1645748;85;21257;-40
2022/11/15 13:02:45;;;;;;;14.10;7.97;;;;;;;6.42;90.16;100438.42;1640023;85;21125;-39
2022/11/15 13:05:20;;;;;;;15.08;8.48;;;;;;;6.34;91.74;100453.88;1627832;86;21073;-40
2022/11/15 13:07:57;;;;;;;13.70;7.92;;;;;;;6.23;93.16;100436.33;1628409;86;21052;-48
2022/11/15 13:10:31;;;;;;;11.00;8.90;;;;;;;6.10;94.32;100428.30;1610531;86;21548;-40
2022/11/15 13:13:03;;;;;;;13.35;8.58;;;;;;;6.01;95.24;100424.63;1625951;86;21021;-39
2022/11/15 13:15:37;;;;;;;18.60;9.20;;;;;;;5.90;96.11;100420.89;1609551;87;21073;-47
2022/11/15 13:18:30;;;;;;;13.35;9.03;;;;;;;5.80;96.95;100420.72;1598069;88;21179;-47
2022/11/15 13:20:57;;;;;;;17.02;9.18;;;;;;;5.73;97.54;100429.20;1564544;89;21503;-42
2022/11/15 13:23:24;;;;;;;18.00;10.25;;;;;;;5.65;98.05;100421.67;1583745;88;21149;-49
2022/11/15 13:26:08;;;;;;;15.13;9.78;;;;;;;5.60;98.57;100416.80;1596674;88;21060;-39
2022/11/15 13:28:45;;;;;;;15.15;9.63;;;;;;;5.55;98.99;100408.91;1593980;88;21159;-40
2022/11/15 13:31:31;;;;;;;13.80;9.85;;;;;;;5.50;99.25;100404.45;1581461;89;21556;-39
2022/11/15 13:34:02;;;;;;;15.83;9.98;;;;;;;5.46;99.53;100411.31;1580572;90;21643;-39
2022/11/15 13:36:35;;;;;;;17.12;9.60;;;;;;;5.44;99.83;100400.43;1589769;89;21073;-47
2022/11/15 13:39:07;;;;;;;14.70;9.68;;;;;;;5.43;100.00;100390.90;1585036;89;21632;-47
2022/11/15 13:41:36;;;;;;;21.68;10.23;;;;;;;5.43;100.00;100390.90;1580243;89;21572;-47
2022/11/15 13:44:03;;;;;;;16.87;10.85;;;;;;;5.43;100.00;100387.01;1575703;90;21688;-39
2022/11/15 13:46:33;;;;;;;16.32;10.58;;;;;;;5.39;100.00;100381.28;1553105;90;21085;-49
2022/11/15 13:49:03;;;;;;;19.17;10.13;;;;;;;5.38;100.00;100376.94;1580125;89;21199;-50
2022/11/15 13:51:41;;;;;;;18.70;10.80;;;;;;;5.34;100.00;100376.89;1585000;90;21061;-48
2022/11/15 13:54:22;;;;;;;23.92;11.53;;;;;;;5.33;100.00;100378.12;1576576;87;21140;-49
2022/11/15 13:56:55;;;;;;;17.60;10.67;;;;;;;5.30;100.00;100363.39;1637129;86;21597;-49
2022/11/15 13:59:28;;;;;;;16.77;11.00;;;;;;;5.27;100.00;100359.84;1631698;86;21487;-40
2022/11/15 14:01:58;;;;;;;19.30;11.28;;;;;;;5.25;100.00;100358.94;1636028;86;21794;-47
